Time;durP1;ratioP1;P1;durP2;ratioP2;P2;SDS_P1;SDS_P2;PMS_P1;PMS_P2;Temp;Humidity;BMP_temperature;BMP_pressure;BME280_temperature;BME280_humidity;BME280_pressure;Samples;Min_cycle;Max_cycle;Signal;HPM_P1;HPM_P2
2023/01/13 00:10:51;;;;;;;13.73;6.70;;;;;;;0.01;100.00;101040.50;31342064;28;20053;-79
2023/01/13 00:25:58;;;;;;;8.47;4.97;;;;;;;0.19;100.00;101031.28;31313445;28;20427;-78
2023/01/13 00:41:04;;;;;;;12.87;5.07;;;;;;;-0.06;100.00;101026.91;31353982;28;20053;-79
2023/01/13 00:56:18;;;;;;;9.23;4.67;;;;;;;0.08;100.00;101026.63;31379833;28;20049;-78
2023/01/13 01:11:36;;;;;;;9.83;4.33;;;;;;;0.23;100.00;101026.88;31365647;28;20059;-78
2023/01/13 01:26:37;;;;;;;12.33;4.50;;;;;;;-0.10;100.00;101009.97;31392367;28;20061;-79
2023/01/13 01:43:57;;;;;;;10.97;4.77;;;;;;;-0.31;100.00;101015.28;31371933;28;20124;-79
2023/01/13 01:57:02;;;;;;;12.20;4.93;;;;;;;-0.15;100.00;101026.94;31342949;28;20057;-77
2023/01/13 02:27:51;;;;;;;11.57;4.50;;;;;;;-0.44;100.00;101017.06;31349500;28;20057;-79
2023/01/13 02:58:42;;;;;;;10.50;5.47;;;;;;;-0.52;100.00;101017.91;31356951;28;20055;-79
2023/01/13 03:13:57;;;;;;;14.60;4.83;;;;;;;-0.50;100.00;101002.34;31354029;28;20055;-78
2023/01/13 03:29:10;;;;;;;13.47;3.97;;;;;;;-0.51;100.00;100984.78;31356065;28;20056;-78
2023/01/13 03:44:26;;;;;;;11.03;5.57;;;;;;;-0.47;100.00;100980.34;31360085;28;20052;-76
2023/01/13 03:59:34;;;;;;;19.17;5.80;;;;;;;-0.52;100.00;100987.78;31340144;28;20049;-79
2023/01/13 04:50:18;;;;;;;10.73;4.73;;;;;;;-0.32;100.00;100975.56;31389666;28;20421;-81
2023/01/13 05:05:20;;;;;;;13.83;5.03;;;;;;;-0.38;100.00;101010.44;31341464;28;20445;-80
2023/01/13 05:20:22;;;;;;;13.03;5.00;;;;;;;-0.27;100.00;101018.09;31314897;28;20053;-81
2023/01/13 05:35:24;;;;;;;23.93;6.67;;;;;;;-0.18;100.00;101026.81;31301478;28;20107;-81
2023/01/13 05:50:26;;;;;;;17.63;5.13;;;;;;;-0.11;100.00;101030.53;31244917;28;20049;-79
2023/01/13 06:05:28;;;;;;;13.23;5.40;;;;;;;-0.21;100.00;101036.25;31225650;28;20049;-81
2023/01/13 06:20:30;;;;;;;16.07;5.53;;;;;;;0.00;100.00;101036.28;31217965;28;20048;-82
2023/01/13 06:35:36;;;;;;;16.30;5.00;;;;;;;0.16;100.00;101034.59;31210602;28;20069;-81
2023/01/13 06:50:38;;;;;;;7.03;4.33;;;;;;;0.19;100.00;101033.19;31217774;28;20062;-81
2023/01/13 07:05:51;;;;;;;14.73;5.53;;;;;;;0.46;100.00;101043.34;31238154;28;20060;-80
2023/01/13 11:35:20;;;;;;;10.83;5.83;;;;;;;2.79;100.00;100967.91;31838252;27;20389;-85
2023/01/13 11:50:50;;;;;;;12.20;4.37;;;;;;;2.61;100.00;100977.38;31768770;28;20075;-88
2023/01/13 12:06:01;;;;;;;10.17;4.00;;;;;;;2.82;100.00;100993.28;31729149;28;20538;-77
2023/01/13 12:21:24;;;;;;;12.97;4.90;;;;;;;2.97;100.00;101000.53;31715296;28;20488;-77
2023/01/13 12:36:31;;;;;;;15.53;5.00;;;;;;;2.76;100.00;100995.41;31621561;28;20048;-78
2023/01/13 12:51:36;;;;;;;10.70;4.30;;;;;;;2.73;100.00;101010.28;31595298;28;20106;-80
2023/01/13 13:06:48;;;;;;;15.63;3.70;;;;;;;2.89;100.00;101023.72;31625246;28;20048;-79
2023/01/13 13:22:18;;;;;;;11.77;4.23;;;;;;;2.77;100.00;101025.69;31632644;28;20078;-80
2023/01/13 13:37:29;;;;;;;23.57;11.57;;;;;;;2.49;100.00;101031.06;31618263;28;20052;-77
2023/01/13 13:52:41;;;;;;;9.87;3.97;;;;;;;2.73;100.00;101030.97;31655724;28;20200;-80
2023/01/13 14:07:57;;;;;;;21.53;5.80;;;;;;;2.46;100.00;101034.41;31600309;28;20063;-79
2023/01/13 14:23:04;;;;;;;14.20;5.20;;;;;;;2.31;100.00;101042.06;31639074;27;20098;-85
2023/01/13 14:38:15;;;;;;;8.33;4.17;;;;;;;1.88;100.00;101041.94;31632293;27;20512;-80
2023/01/13 14:53:33;;;;;;;9.63;4.83;;;;;;;2.00;100.00;101039.22;31618785;28;20047;-79
2023/01/13 15:08:37;;;;;;;11.87;5.00;;;;;;;1.70;100.00;101052.84;31601581;28;20059;-76
2023/01/13 15:23:40;;;;;;;16.40;5.83;;;;;;;1.81;100.00;101047.06;31613965;28;20098;-83
2023/01/13 15:38:41;;;;;;;6.77;4.60;;;;;;;1.95;100.00;101053.63;31659818;28;20052;-93
2023/01/13 15:53:44;;;;;;;11.47;4.27;;;;;;;2.51;100.00;101045.69;31629687;28;20064;-78
2023/01/13 16:08:46;;;;;;;16.73;7.80;;;;;;;2.20;100.00;101059.72;31641992;28;20048;-81
2023/01/13 19:38:12;;;;;;;30.00;7.13;;;;;;;1.78;100.00;101007.56;31755522;27;20395;-76
2023/01/13 19:53:16;;;;;;;16.03;4.87;;;;;;;2.19;100.00;101001.91;31704084;27;20105;-76
2023/01/13 20:08:20;;;;;;;14.90;4.00;;;;;;;2.15;100.00;101003.69;31675382;28;20056;-83
2023/01/13 20:23:21;;;;;;;33.90;5.07;;;;;;;2.11;100.00;100997.47;31716188;28;20052;-74
2023/01/13 20:38:23;;;;;;;32.17;5.60;;;;;;;2.04;100.00;101002.63;31612825;28;20051;-77
2023/01/13 20:53:25;;;;;;;22.67;5.53;;;;;;;2.02;100.00;100986.09;31604392;28;20109;-75
2023/01/13 21:08:27;;;;;;;24.10;5.07;;;;;;;1.98;100.00;100983.31;31599155;28;20109;-74
2023/01/13 21:23:29;;;;;;;27.03;7.50;;;;;;;2.10;100.00;100976.38;31595141;28;20052;-76
2023/01/13 21:38:32;;;;;;;19.50;5.20;;;;;;;2.27;100.00;100974.19;31598214;28;20044;-76
2023/01/13 21:53:34;;;;;;;28.03;7.17;;;;;;;2.25;100.00;100959.56;31586964;28;20052;-79
2023/01/13 22:08:36;;;;;;;19.73;5.87;;;;;;;2.26;100.00;100964.59;31589514;28;20098;-78
2023/01/13 22:23:38;;;;;;;19.87;7.03;;;;;;;2.25;100.00;100960.34;31597587;28;20056;-76
2023/01/13 22:38:40;;;;;;;23.70;7.33;;;;;;;2.24;100.00;100955.34;31557227;28;20052;-81
2023/01/13 22:53:42;;;;;;;15.83;7.00;;;;;;;2.29;100.00;100955.88;31605016;28;20050;-78
2023/01/13 23:08:45;;;;;;;30.80;7.13;;;;;;;2.23;100.00;100962.59;31602032;28;20169;-78
2023/01/13 23:23:47;;;;;;;23.50;8.13;;;;;;;2.00;100.00;100953.53;31607361;28;20060;-76
2023/01/13 23:38:51;;;;;;;19.30;9.80;;;;;;;1.98;100.00;100956.53;31599878;28;20060;-75
